Bayfield, Colorado
Current Conditions -  °F | °C
As of 3:53 AM on Wednesday 22 Oct 2014 (Local Time) from KDRO Reporting Station
Clear Clear  
Wind Chill: 40°   Ceiling: Unl
Heat Index: 40°   Visibility: 10mi
Dew Point: 39°   Wind: 3mph
Humidity: 97%   Direction: 10°N
Pressure: 30.16"   Gusts: NA
Location:  37.23°N, 107.6°W
Report Text: KDRO 220953Z AUTO 01003KT 10SM CLR 04/04 A3016 RMK AO2 SLP174 T00440039 PWINO
Loading
Personal Weather Stations






























Interactive Weather Map
Tropical Storm Tracking
New forecast layout! Learn more

10-Day Weather Forecast

Advertisements
Track Severe Weather on mobile